createdAt,value
2023-02-04T00:00:01.782Z,1015.29
2023-02-04T00:01:01.771Z,1015.30
2023-02-04T00:02:01.759Z,1015.28
2023-02-04T00:03:01.764Z,1015.32
2023-02-04T00:04:01.736Z,1015.28
2023-02-04T00:05:01.681Z,1015.35
2023-02-04T00:06:01.705Z,1015.36
2023-02-04T00:07:01.644Z,1015.37
2023-02-04T00:08:01.663Z,1015.36
2023-02-04T00:09:01.637Z,1015.43
2023-02-04T00:10:01.604Z,1015.39
2023-02-04T00:11:01.585Z,1015.39
2023-02-04T00:12:01.550Z,1015.35
2023-02-04T00:13:01.576Z,1015.45
2023-02-04T00:14:01.554Z,1015.49
2023-02-04T00:15:01.561Z,1015.57
2023-02-04T00:16:01.498Z,1015.50
2023-02-04T00:17:01.453Z,1015.54
2023-02-04T00:18:01.438Z,1015.53
2023-02-04T00:19:01.419Z,1015.58
2023-02-04T00:20:01.435Z,1015.56
2023-02-04T00:21:01.382Z,1015.57
2023-02-04T00:22:01.361Z,1015.61
2023-02-04T00:23:01.372Z,1015.57
2023-02-04T00:24:01.319Z,1015.58
2023-02-04T00:25:01.296Z,1015.51
2023-02-04T00:26:01.286Z,1015.63
2023-02-04T00:27:01.280Z,1015.60
2023-02-04T00:28:01.337Z,1015.65
2023-02-04T00:29:01.235Z,1015.63
2023-02-04T00:30:01.205Z,1015.72
2023-02-04T00:31:01.249Z,1015.70
2023-02-04T00:32:01.276Z,1015.78
2023-02-04T00:33:01.170Z,1015.69
2023-02-04T00:34:01.136Z,1015.74
2023-02-04T00:35:01.108Z,1015.77
2023-02-04T00:36:01.138Z,1015.81
2023-02-04T00:37:01.071Z,1015.81
2023-02-04T00:38:01.058Z,1015.78
2023-02-04T00:39:01.082Z,1015.71
2023-02-04T00:40:01.011Z,1015.71
2023-02-04T00:41:01.031Z,1015.78
2023-02-04T00:42:00.979Z,1015.79
2023-02-04T00:43:00.989Z,1015.78
2023-02-04T00:44:00.936Z,1015.84
2023-02-04T00:45:00.930Z,1015.81
2023-02-04T00:46:00.962Z,1015.84
2023-02-04T00:47:00.880Z,1015.89
2023-02-04T00:48:00.858Z,1015.89
2023-02-04T00:49:00.848Z,1015.87
2023-02-04T00:50:00.827Z,1015.87
2023-02-04T00:51:00.803Z,1015.83
2023-02-04T00:52:00.812Z,1015.83
2023-02-04T00:53:00.765Z,1015.86
2023-02-04T00:54:00.746Z,1015.85
2023-02-04T00:55:00.729Z,1015.82
2023-02-04T00:56:00.716Z,1015.88
2023-02-04T00:57:00.689Z,1015.76
2023-02-04T00:58:00.675Z,1015.89
2023-02-04T00:59:00.679Z,1015.92
2023-02-04T01:00:00.636Z,1015.96
2023-02-04T01:01:00.655Z,1015.95
2023-02-04T01:02:00.596Z,1016.00
2023-02-04T01:03:00.706Z,1015.99
2023-02-04T01:04:00.555Z,1016.02
2023-02-04T01:05:00.537Z,1016.07
2023-02-04T01:06:00.517Z,1016.05
2023-02-04T01:07:00.513Z,1016.06
2023-02-04T01:08:00.536Z,1016.10
2023-02-04T01:09:00.469Z,1016.16
2023-02-04T01:10:00.441Z,1016.16
2023-02-04T01:11:00.431Z,1016.18
2023-02-04T01:12:00.399Z,1016.23
2023-02-04T01:13:00.384Z,1016.23
2023-02-04T01:14:00.413Z,1016.29
2023-02-04T01:15:00.353Z,1016.30
2023-02-04T01:16:00.612Z,1016.32
2023-02-04T01:17:00.312Z,1016.38
2023-02-04T01:18:00.288Z,1016.32
2023-02-04T01:19:00.290Z,1016.37
2023-02-04T01:20:00.298Z,1016.37
2023-02-04T01:21:00.277Z,1016.39
2023-02-04T01:22:00.227Z,1016.43
2023-02-04T01:23:00.192Z,1016.45
2023-02-04T01:24:00.192Z,1016.52
2023-02-04T01:25:00.165Z,1016.51
2023-02-04T01:26:00.208Z,1016.50
2023-02-04T01:27:00.115Z,1016.55
2023-02-04T01:28:00.209Z,1016.56
2023-02-04T01:29:00.096Z,1016.61
2023-02-04T01:30:00.059Z,1016.66
2023-02-04T01:31:00.106Z,1016.70
2023-02-04T01:32:00.093Z,1016.69
2023-02-04T01:33:00.000Z,1016.68
2023-02-04T01:34:00.026Z,1016.64
2023-02-04T01:34:59.971Z,1016.62
2023-02-04T01:35:59.945Z,1016.64
2023-02-04T01:36:59.931Z,1016.75
2023-02-04T01:37:59.931Z,1016.73
2023-02-04T01:38:59.883Z,1016.68
2023-02-04T01:39:59.864Z,1016.76
2023-02-04T01:40:59.847Z,1016.76
2023-02-04T01:41:59.852Z,1016.73
2023-02-04T01:42:59.809Z,1016.81
2023-02-04T01:43:59.784Z,1016.85
2023-02-04T01:44:59.797Z,1016.87
2023-02-04T01:45:59.821Z,1016.88
2023-02-04T01:46:59.729Z,1016.90
2023-02-04T01:47:59.709Z,1016.83
2023-02-04T01:48:59.696Z,1016.91
2023-02-04T01:49:59.676Z,1016.94
2023-02-04T01:50:59.651Z,1017.00
2023-02-04T01:51:59.638Z,1017.00
2023-02-04T01:52:59.617Z,1016.99
2023-02-04T01:53:59.593Z,1017.09
2023-02-04T01:54:59.611Z,1016.94
2023-02-04T01:55:59.553Z,1017.07
2023-02-04T01:56:59.538Z,1017.04
2023-02-04T01:57:59.514Z,1016.97
2023-02-04T01:58:59.507Z,1017.03
2023-02-04T01:59:59.480Z,1017.00
2023-02-04T02:00:59.520Z,1017.07
2023-02-04T02:01:59.484Z,1017.05
2023-02-04T02:02:59.439Z,1017.17
2023-02-04T02:03:59.406Z,1017.18
2023-02-04T02:04:59.392Z,1017.19
2023-02-04T02:05:59.371Z,1017.17
2023-02-04T02:06:59.368Z,1017.18
2023-02-04T02:07:59.339Z,1017.28
2023-02-04T02:08:59.327Z,1017.25
2023-02-04T02:09:59.293Z,1017.29
2023-02-04T02:10:59.340Z,1017.23
2023-02-04T02:11:59.243Z,1017.26
2023-02-04T02:12:59.256Z,1017.31
2023-02-04T02:13:59.240Z,1017.33
2023-02-04T02:14:59.373Z,1017.33
2023-02-04T02:15:59.180Z,1017.33
2023-02-04T02:16:59.205Z,1017.34
2023-02-04T02:17:59.139Z,1017.38
2023-02-04T02:18:59.117Z,1017.35
2023-02-04T02:19:59.091Z,1017.39
2023-02-04T02:20:59.103Z,1017.45
2023-02-04T02:21:59.052Z,1017.47
2023-02-04T02:22:59.073Z,1017.51
2023-02-04T02:23:59.024Z,1017.57
2023-02-04T02:24:58.997Z,1017.52
2023-02-04T02:25:59.017Z,1017.61
2023-02-04T02:26:58.954Z,1017.55
2023-02-04T02:27:58.968Z,1017.60
2023-02-04T02:28:58.921Z,1017.63
2023-02-04T02:29:58.913Z,1017.73
2023-02-04T02:30:58.996Z,1017.69
2023-02-04T02:31:58.914Z,1017.71
2023-02-04T02:32:58.867Z,1017.72
2023-02-04T02:33:58.863Z,1017.76
2023-02-04T02:34:58.803Z,1017.82
2023-02-04T02:35:58.808Z,1017.78
2023-02-04T02:36:58.779Z,1017.78
2023-02-04T02:37:58.752Z,1017.75
2023-02-04T02:38:58.728Z,1017.77
2023-02-04T02:39:58.709Z,1017.80
2023-02-04T02:40:58.719Z,1017.75
2023-02-04T02:41:58.667Z,1017.75
2023-02-04T02:42:58.706Z,1017.82
2023-02-04T02:43:58.642Z,1017.78
2023-02-04T02:44:58.631Z,1017.83
2023-02-04T02:45:58.675Z,1017.82
2023-02-04T02:46:58.581Z,1017.76
2023-02-04T02:47:58.573Z,1017.76
2023-02-04T02:48:58.561Z,1017.85
2023-02-04T02:49:58.514Z,1017.81
2023-02-04T02:50:58.550Z,1017.74
2023-02-04T02:51:58.473Z,1017.82
2023-02-04T02:52:58.488Z,1017.81
2023-02-04T02:53:58.467Z,1017.84
2023-02-04T02:54:58.431Z,1017.88
2023-02-04T02:55:58.395Z,1017.83
2023-02-04T02:56:58.382Z,1017.83
2023-02-04T02:57:58.405Z,1017.79
2023-02-04T02:58:58.344Z,1017.76
2023-02-04T02:59:58.319Z,1017.72
2023-02-04T03:00:58.412Z,1017.74
2023-02-04T03:01:58.285Z,1017.83
2023-02-04T03:02:58.262Z,1017.84
2023-02-04T03:03:58.256Z,1017.83
2023-02-04T03:04:58.228Z,1017.83
2023-02-04T03:05:58.207Z,1017.83
2023-02-04T03:06:58.213Z,1017.86
2023-02-04T03:07:58.201Z,1017.91
2023-02-04T03:08:58.151Z,1017.87
2023-02-04T03:09:58.130Z,1017.87
2023-02-04T03:10:58.143Z,1017.92
2023-02-04T03:11:58.102Z,1017.94
2023-02-04T03:12:58.082Z,1017.96
2023-02-04T03:13:58.058Z,1018.02
2023-02-04T03:14:58.038Z,1018.02
2023-02-04T03:15:58.057Z,1018.05
2023-02-04T03:16:58.018Z,1018.05
2023-02-04T03:17:57.989Z,1018.09
2023-02-04T03:18:57.972Z,1018.09
2023-02-04T03:19:57.953Z,1018.06
2023-02-04T03:20:57.925Z,1018.08
2023-02-04T03:21:57.938Z,1018.10
2023-02-04T03:22:57.894Z,1018.15
2023-02-04T03:23:57.872Z,1018.18
2023-02-04T03:24:57.852Z,1018.23
2023-02-04T03:25:57.907Z,1018.21
2023-02-04T03:26:57.814Z,1018.23
2023-02-04T03:27:57.853Z,1018.33
2023-02-04T03:28:57.771Z,1018.32
2023-02-04T03:29:57.756Z,1018.30
2023-02-04T03:30:57.880Z,1018.31
2023-02-04T03:31:57.911Z,1018.28
2023-02-04T03:32:57.699Z,1018.27
2023-02-04T03:33:57.680Z,1018.32
2023-02-04T03:34:57.660Z,1018.37
2023-02-04T03:35:57.710Z,1018.40
2023-02-04T03:36:57.629Z,1018.45
2023-02-04T03:37:57.617Z,1018.41
2023-02-04T03:38:57.593Z,1018.40
2023-02-04T03:39:57.564Z,1018.47
2023-02-04T03:40:57.546Z,1018.47
2023-02-04T03:41:57.563Z,1018.49
2023-02-04T03:42:57.536Z,1018.47
2023-02-04T03:43:57.519Z,1018.49
2023-02-04T03:44:57.473Z,1018.52
2023-02-04T03:45:57.474Z,1018.56
2023-02-04T03:46:57.435Z,1018.60
2023-02-04T03:47:57.427Z,1018.58
2023-02-04T03:48:57.417Z,1018.59
2023-02-04T03:49:57.381Z,1018.63
2023-02-04T03:50:57.358Z,1018.65
2023-02-04T03:51:57.351Z,1018.68
2023-02-04T03:52:57.318Z,1018.71
2023-02-04T03:53:57.318Z,1018.71
2023-02-04T03:54:57.276Z,1018.75
2023-02-04T03:55:57.261Z,1018.74
2023-02-04T03:56:57.257Z,1018.80
2023-02-04T03:57:57.227Z,1018.80
2023-02-04T03:58:57.229Z,1018.80
2023-02-04T03:59:57.187Z,1018.84
2023-02-04T04:00:57.167Z,1018.87
2023-02-04T04:01:57.182Z,1018.89
2023-02-04T04:02:57.150Z,1018.90
2023-02-04T04:03:57.142Z,1018.87
2023-02-04T04:04:57.117Z,1018.87
2023-02-04T04:05:57.070Z,1018.87
2023-02-04T04:06:57.046Z,1018.87
2023-02-04T04:07:57.033Z,1018.89
2023-02-04T04:08:57.013Z,1018.90
2023-02-04T04:09:57.022Z,1018.92
2023-02-04T04:10:56.972Z,1018.86
2023-02-04T04:11:56.962Z,1018.92
2023-02-04T04:12:56.942Z,1018.87
2023-02-04T04:13:56.947Z,1018.93
2023-02-04T04:14:56.892Z,1018.98
2023-02-04T04:15:56.922Z,1019.05
2023-02-04T04:16:56.869Z,1019.05
2023-02-04T04:17:56.851Z,1019.08
2023-02-04T04:18:56.844Z,1019.12
2023-02-04T04:19:56.809Z,1019.11
2023-02-04T04:20:56.779Z,1019.16
2023-02-04T04:21:56.765Z,1019.13
2023-02-04T04:22:56.742Z,1019.15
2023-02-04T04:23:56.755Z,1019.17
2023-02-04T04:24:56.707Z,1019.13
2023-02-04T04:25:56.764Z,1019.12
2023-02-04T04:26:56.673Z,1019.16
2023-02-04T04:27:56.694Z,1019.16
2023-02-04T04:28:56.629Z,1019.21
2023-02-04T04:29:56.617Z,1019.20
2023-02-04T04:30:56.638Z,1019.21
2023-02-04T04:31:56.615Z,1019.23
2023-02-04T04:32:56.574Z,1019.29
2023-02-04T04:33:56.531Z,1019.28
2023-02-04T04:34:56.518Z,1019.26
2023-02-04T04:35:56.483Z,1019.30
2023-02-04T04:36:56.519Z,1019.24
2023-02-04T04:37:56.449Z,1019.27
2023-02-04T04:38:56.425Z,1019.26
2023-02-04T04:39:56.429Z,1019.26
2023-02-04T04:40:56.387Z,1019.30
2023-02-04T04:41:56.366Z,1019.32
2023-02-04T04:42:56.357Z,1019.29
2023-02-04T04:43:56.326Z,1019.35
2023-02-04T04:44:56.310Z,1019.40
2023-02-04T04:45:56.292Z,1019.45
2023-02-04T04:46:56.320Z,1019.53
2023-02-04T04:47:56.289Z,1019.54
2023-02-04T04:48:56.241Z,1019.60
2023-02-04T04:49:56.219Z,1019.58
2023-02-04T04:50:56.189Z,1019.59
2023-02-04T04:51:56.176Z,1019.63
2023-02-04T04:52:56.157Z,1019.59
2023-02-04T04:53:56.166Z,1019.58
2023-02-04T04:54:56.141Z,1019.64
2023-02-04T04:55:56.094Z,1019.58
2023-02-04T04:56:56.075Z,1019.62
2023-02-04T04:57:56.089Z,1019.67
2023-02-04T04:58:56.034Z,1019.68
2023-02-04T04:59:56.034Z,1019.66
2023-02-04T05:00:56.057Z,1019.68
2023-02-04T05:01:56.001Z,1019.69
2023-02-04T05:02:55.952Z,1019.76
2023-02-04T05:03:55.979Z,1019.77
2023-02-04T05:04:55.947Z,1019.78
2023-02-04T05:05:55.901Z,1019.75
2023-02-04T05:06:55.877Z,1019.77
2023-02-04T05:07:55.869Z,1019.81
2023-02-04T05:08:55.840Z,1019.77
2023-02-04T05:09:55.861Z,1019.81
2023-02-04T05:10:55.810Z,1019.79
2023-02-04T05:11:55.803Z,1019.77
2023-02-04T05:12:55.791Z,1019.75
2023-02-04T05:13:55.751Z,1019.75
2023-02-04T05:14:55.740Z,1019.77
2023-02-04T05:15:55.775Z,1019.78
2023-02-04T05:16:55.688Z,1019.80
2023-02-04T05:17:55.669Z,1019.83
2023-02-04T05:18:55.657Z,1019.76
2023-02-04T05:19:55.661Z,1019.75
2023-02-04T05:20:55.624Z,1019.76
2023-02-04T05:21:55.596Z,1019.83
2023-02-04T05:22:55.580Z,1019.84
2023-02-04T05:23:55.550Z,1019.88
2023-02-04T05:24:55.561Z,1019.92
2023-02-04T05:25:55.525Z,1019.92
2023-02-04T05:26:55.495Z,1019.92
2023-02-04T05:27:55.586Z,1019.90
2023-02-04T05:28:55.451Z,1019.94
2023-02-04T05:29:55.452Z,1020.00
2023-02-04T05:30:55.439Z,1019.97
2023-02-04T05:31:55.773Z,1020.00
2023-02-04T05:32:55.372Z,1019.99
2023-02-04T05:33:55.357Z,1020.05
2023-02-04T05:34:55.333Z,1020.04
2023-02-04T05:35:55.375Z,1020.10
2023-02-04T05:36:55.298Z,1020.09
2023-02-04T05:37:55.274Z,1020.08
2023-02-04T05:38:55.256Z,1020.13
2023-02-04T05:39:55.240Z,1020.13
2023-02-04T05:40:55.217Z,1020.12
2023-02-04T05:41:55.263Z,1020.18
2023-02-04T05:42:55.176Z,1020.20
2023-02-04T05:43:55.154Z,1020.20
2023-02-04T05:44:55.134Z,1020.21
2023-02-04T05:45:55.203Z,1020.24
2023-02-04T05:46:55.106Z,1020.27
2023-02-04T05:47:55.104Z,1020.25
2023-02-04T05:48:55.060Z,1020.24
2023-02-04T05:49:55.051Z,1020.24
2023-02-04T05:50:55.026Z,1020.25
2023-02-04T05:51:55.008Z,1020.27
2023-02-04T05:52:55.014Z,1020.30
2023-02-04T05:53:54.958Z,1020.30
2023-02-04T05:54:54.938Z,1020.36
2023-02-04T05:55:54.926Z,1020.36
2023-02-04T05:56:54.925Z,1020.42
2023-02-04T05:57:54.879Z,1020.40
2023-02-04T05:58:54.952Z,1020.41
2023-02-04T05:59:54.846Z,1020.45
2023-02-04T06:00:54.822Z,1020.44
2023-02-04T06:01:54.799Z,1020.47
2023-02-04T06:02:54.803Z,1020.45
2023-02-04T06:03:54.788Z,1020.48
2023-02-04T06:04:54.766Z,1020.51
2023-02-04T06:05:54.719Z,1020.52
2023-02-04T06:06:54.722Z,1020.56
2023-02-04T06:07:54.680Z,1020.51
2023-02-04T06:08:54.693Z,1020.53
2023-02-04T06:09:54.648Z,1020.55
2023-02-04T06:10:54.651Z,1020.58
2023-02-04T06:11:54.606Z,1020.59
2023-02-04T06:12:54.593Z,1020.58
2023-02-04T06:13:54.592Z,1020.61
2023-02-04T06:14:54.593Z,1020.60
2023-02-04T06:15:54.529Z,1020.62
2023-02-04T06:16:54.541Z,1020.62
2023-02-04T06:17:54.487Z,1020.61
2023-02-04T06:18:54.459Z,1020.62
2023-02-04T06:19:54.450Z,1020.68
2023-02-04T06:20:54.449Z,1020.69
2023-02-04T06:21:54.396Z,1020.77
2023-02-04T06:22:54.382Z,1020.75
2023-02-04T06:23:54.373Z,1020.72
2023-02-04T06:24:54.345Z,1020.80
2023-02-04T06:25:54.425Z,1020.77
2023-02-04T06:26:54.342Z,1020.80
2023-02-04T06:27:54.336Z,1020.86
2023-02-04T06:28:54.263Z,1020.83
2023-02-04T06:29:54.242Z,1020.84
2023-02-04T06:30:54.333Z,1020.85
2023-02-04T06:31:54.378Z,1020.83
2023-02-04T06:32:54.186Z,1020.81
2023-02-04T06:33:54.170Z,1020.82
2023-02-04T06:34:54.152Z,1020.83
2023-02-04T06:35:54.147Z,1020.86
2023-02-04T06:36:54.153Z,1020.85
2023-02-04T06:37:54.083Z,1020.87
2023-02-04T06:38:54.067Z,1020.86
2023-02-04T06:39:54.041Z,1020.87
2023-02-04T06:40:54.030Z,1020.93
2023-02-04T06:41:54.016Z,1020.88
2023-02-04T06:42:54.014Z,1020.91
2023-02-04T06:43:53.962Z,1020.93
2023-02-04T06:44:53.960Z,1020.95
2023-02-04T06:45:53.975Z,1020.97
2023-02-04T06:46:53.906Z,1020.99
2023-02-04T06:47:53.909Z,1020.98
2023-02-04T06:48:53.880Z,1020.97
2023-02-04T06:49:53.846Z,1020.98
2023-02-04T06:50:53.829Z,1020.94
2023-02-04T06:51:53.806Z,1021.00
2023-02-04T06:52:53.792Z,1020.98
2023-02-04T06:53:53.785Z,1021.06
2023-02-04T06:54:53.749Z,1021.11
2023-02-04T06:55:53.722Z,1021.17
2023-02-04T06:56:53.710Z,1021.12
2023-02-04T06:57:53.686Z,1021.14
2023-02-04T06:58:53.674Z,1021.14
2023-02-04T06:59:53.647Z,1021.14
2023-02-04T07:00:53.634Z,1021.20
2023-02-04T07:01:53.645Z,1021.17
2023-02-04T07:02:53.601Z,1021.22
2023-02-04T07:03:53.569Z,1021.24
2023-02-04T07:04:53.551Z,1021.22
2023-02-04T07:05:53.522Z,1021.29
2023-02-04T07:06:53.527Z,1021.26
2023-02-04T07:07:53.523Z,1021.29
2023-02-04T07:08:53.464Z,1021.30
2023-02-04T07:09:53.442Z,1021.29
2023-02-04T07:10:53.437Z,1021.40
2023-02-04T07:11:53.403Z,1021.38
2023-02-04T07:12:53.385Z,1021.37
2023-02-04T07:13:53.371Z,1021.36
2023-02-04T07:14:53.348Z,1021.39
2023-02-04T07:15:53.362Z,1021.41
2023-02-04T07:16:53.317Z,1021.39
2023-02-04T07:17:53.283Z,1021.37
2023-02-04T07:18:53.325Z,1021.41
2023-02-04T07:19:53.240Z,1021.41
2023-02-04T07:20:53.231Z,1021.42
2023-02-04T07:21:53.212Z,1021.42
2023-02-04T07:22:53.189Z,1021.45
2023-02-04T07:23:53.164Z,1021.44
2023-02-04T07:24:53.175Z,1021.44
2023-02-04T07:25:53.132Z,1021.42
2023-02-04T07:26:53.237Z,1021.43
2023-02-04T07:27:53.134Z,1021.44
2023-02-04T07:28:53.076Z,1021.46
2023-02-04T07:29:53.111Z,1021.47
2023-02-04T07:30:53.198Z,1021.55
2023-02-04T07:31:53.197Z,1021.60
2023-02-04T07:32:52.984Z,1021.60
2023-02-04T07:33:52.966Z,1021.64
2023-02-04T07:34:52.945Z,1021.65
2023-02-04T07:35:53.052Z,1021.69
2023-02-04T07:36:52.983Z,1021.70
2023-02-04T07:37:52.877Z,1021.70
2023-02-04T07:38:52.857Z,1021.76
2023-02-04T07:39:52.838Z,1021.78
2023-02-04T07:40:52.844Z,1021.74
2023-02-04T07:41:52.795Z,1021.77
2023-02-04T07:42:52.840Z,1021.82
2023-02-04T07:43:52.756Z,1021.80
2023-02-04T07:44:52.732Z,1021.78
2023-02-04T07:45:52.713Z,1021.74
2023-02-04T07:46:52.690Z,1021.77
2023-02-04T07:47:52.670Z,1021.79
2023-02-04T07:48:52.659Z,1021.79
2023-02-04T07:49:52.631Z,1021.78
2023-02-04T07:50:52.607Z,1021.88
2023-02-04T07:51:52.615Z,1021.91
2023-02-04T07:52:52.570Z,1021.94
2023-02-04T07:53:52.544Z,1021.96
2023-02-04T07:54:52.545Z,1022.00
2023-02-04T07:55:52.506Z,1022.01
2023-02-04T07:56:52.485Z,1022.03
2023-02-04T07:57:52.467Z,1022.01
2023-02-04T07:58:52.474Z,1022.04
2023-02-04T07:59:52.428Z,1022.00
2023-02-04T08:00:52.418Z,1022.05
2023-02-04T08:01:52.459Z,1022.06
2023-02-04T08:02:52.437Z,1022.05
2023-02-04T08:03:52.367Z,1022.06
2023-02-04T08:04:52.323Z,1022.02
2023-02-04T08:05:52.312Z,1021.99
2023-02-04T08:06:52.284Z,1022.01
2023-02-04T08:07:52.258Z,1021.97
2023-02-04T08:08:52.291Z,1021.95
2023-02-04T08:09:52.222Z,1021.99
2023-02-04T08:10:52.198Z,1022.01
2023-02-04T08:11:52.181Z,1022.00
2023-02-04T08:12:52.162Z,1021.96
2023-02-04T08:13:52.156Z,1021.99
2023-02-04T08:14:52.164Z,1021.96
2023-02-04T08:15:52.131Z,1021.97
2023-02-04T08:16:52.080Z,1021.95
2023-02-04T08:17:52.061Z,1021.99
2023-02-04T08:18:52.048Z,1022.04
2023-02-04T08:19:52.035Z,1022.04
2023-02-04T08:20:52.048Z,1022.09
2023-02-04T08:21:52.012Z,1022.06
2023-02-04T08:22:51.958Z,1022.08
2023-02-04T08:23:51.946Z,1022.08
2023-02-04T08:24:51.930Z,1022.10
2023-02-04T08:25:51.897Z,1022.15
2023-02-04T08:26:51.939Z,1022.14
2023-02-04T08:27:52.155Z,1022.17
2023-02-04T08:28:51.840Z,1022.19
2023-02-04T08:29:51.816Z,1022.23
2023-02-04T08:30:51.800Z,1022.23
2023-02-04T08:31:51.956Z,1022.24
2023-02-04T08:32:51.756Z,1022.28
2023-02-04T08:33:51.735Z,1022.34
2023-02-04T08:34:51.716Z,1022.30
2023-02-04T08:35:51.695Z,1022.34
2023-02-04T08:36:51.702Z,1022.34
2023-02-04T08:37:51.655Z,1022.36
2023-02-04T08:38:51.638Z,1022.39
2023-02-04T08:39:51.615Z,1022.39
2023-02-04T08:40:51.601Z,1022.43
2023-02-04T08:41:51.582Z,1022.44
2023-02-04T08:42:51.563Z,1022.43
2023-02-04T08:43:51.605Z,1022.44
2023-02-04T08:44:51.558Z,1022.43
2023-02-04T08:45:51.505Z,1022.44
2023-02-04T08:46:51.557Z,1022.48
2023-02-04T08:47:51.496Z,1022.47
2023-02-04T08:48:51.461Z,1022.50
2023-02-04T08:49:51.438Z,1022.53
2023-02-04T08:50:51.419Z,1022.54
2023-02-04T08:51:51.396Z,1022.49
2023-02-04T08:52:51.435Z,1022.53
2023-02-04T08:53:51.428Z,1022.51
2023-02-04T08:54:51.350Z,1022.49
2023-02-04T08:55:51.330Z,1022.54
2023-02-04T08:56:51.306Z,1022.47
2023-02-04T08:57:51.292Z,1022.49
2023-02-04T08:58:51.277Z,1022.49
2023-02-04T08:59:51.260Z,1022.49
2023-02-04T09:00:51.309Z,1022.49
2023-02-04T09:01:51.355Z,1022.51
2023-02-04T09:02:51.207Z,1022.48
2023-02-04T09:03:51.179Z,1022.53
2023-02-04T09:04:51.190Z,1022.51
2023-02-04T09:05:51.165Z,1022.52
2023-02-04T09:06:51.130Z,1022.55
2023-02-04T09:07:51.104Z,1022.55
2023-02-04T09:08:51.089Z,1022.56
2023-02-04T09:09:51.079Z,1022.57
2023-02-04T09:10:51.056Z,1022.57
2023-02-04T09:11:51.040Z,1022.57
2023-02-04T09:12:51.019Z,1022.60
2023-02-04T09:13:51.035Z,1022.59
2023-02-04T09:14:50.981Z,1022.63
2023-02-04T09:15:52.540Z,1022.62
2023-02-04T09:16:50.941Z,1022.60
2023-02-04T09:17:50.949Z,1022.60
2023-02-04T09:18:50.915Z,1022.60
2023-02-04T09:19:50.880Z,1022.60
2023-02-04T09:20:50.891Z,1022.64
2023-02-04T09:21:50.868Z,1022.69
2023-02-04T09:22:50.885Z,1022.73
2023-02-04T09:23:50.817Z,1022.73
2023-02-04T09:24:50.789Z,1022.73
2023-02-04T09:25:50.769Z,1022.78
2023-02-04T09:26:50.764Z,1022.79
2023-02-04T09:27:50.789Z,1022.81
2023-02-04T09:28:50.725Z,1022.79
2023-02-04T09:29:50.698Z,1022.84
2023-02-04T09:30:50.680Z,1022.84
2023-02-04T09:31:50.698Z,1022.91
2023-02-04T09:32:50.671Z,1022.86
2023-02-04T09:33:50.618Z,1022.90
2023-02-04T09:34:50.607Z,1022.88
2023-02-04T09:35:50.581Z,1022.83
2023-02-04T09:36:50.579Z,1022.87
2023-02-04T09:37:50.587Z,1022.88
2023-02-04T09:38:50.541Z,1022.84
2023-02-04T09:39:50.513Z,1022.83
2023-02-04T09:40:50.498Z,1022.89
2023-02-04T09:41:50.506Z,1022.89
2023-02-04T09:42:50.452Z,1022.90
2023-02-04T09:43:50.437Z,1022.91
2023-02-04T09:44:50.456Z,1022.92
2023-02-04T09:45:50.436Z,1022.93
2023-02-04T09:46:50.405Z,1022.99
2023-02-04T09:47:50.368Z,1022.93
2023-02-04T09:48:50.357Z,1022.92
2023-02-04T09:49:50.371Z,1022.91
2023-02-04T09:50:50.308Z,1022.95
2023-02-04T09:51:50.295Z,1022.95
2023-02-04T09:52:50.267Z,1023.00
2023-02-04T09:53:50.250Z,1023.06
2023-02-04T09:54:50.222Z,1023.02
2023-02-04T09:55:50.210Z,1023.11
2023-02-04T09:56:50.183Z,1023.07
2023-02-04T09:57:50.169Z,1023.05
2023-02-04T09:58:50.145Z,1023.05
2023-02-04T09:59:50.120Z,1023.03
2023-02-04T10:00:50.196Z,1023.02
2023-02-04T10:01:50.084Z,1023.04
2023-02-04T10:02:50.067Z,1023.00
2023-02-04T10:03:50.251Z,1023.03
2023-02-04T10:04:50.053Z,1023.04
2023-02-04T10:05:50.005Z,1023.09
2023-02-04T10:06:50.011Z,1023.13
2023-02-04T10:07:49.969Z,1023.12
2023-02-04T10:08:49.946Z,1023.11
2023-02-04T10:09:49.928Z,1023.15
2023-02-04T10:10:49.904Z,1023.19
2023-02-04T10:11:49.965Z,1023.27
2023-02-04T10:12:49.900Z,1023.29
2023-02-04T10:13:49.861Z,1023.29
2023-02-04T10:14:49.876Z,1023.26
2023-02-04T10:15:49.837Z,1023.22
2023-02-04T10:16:49.859Z,1023.22
2023-02-04T10:17:49.814Z,1023.19
2023-02-04T10:18:49.755Z,1023.26
2023-02-04T10:19:49.746Z,1023.22
2023-02-04T10:20:49.720Z,1023.23
2023-02-04T10:21:49.703Z,1023.30
2023-02-04T10:22:50.363Z,1023.28
2023-02-04T10:23:49.662Z,1023.27
2023-02-04T10:24:49.641Z,1023.26
2023-02-04T10:25:49.627Z,1023.27
2023-02-04T10:26:49.607Z,1023.28
2023-02-04T10:27:49.636Z,1023.28
2023-02-04T10:28:49.576Z,1023.25
2023-02-04T10:29:49.555Z,1023.24
2023-02-04T10:30:49.667Z,1023.27
2023-02-04T10:31:49.654Z,1023.19
2023-02-04T10:32:49.498Z,1023.22
2023-02-04T10:33:49.486Z,1023.22
2023-02-04T10:34:49.488Z,1023.21
2023-02-04T10:35:49.446Z,1023.22
2023-02-04T10:36:49.429Z,1023.23
2023-02-04T10:37:49.420Z,1023.34
2023-02-04T10:38:49.456Z,1023.33
2023-02-04T10:39:49.376Z,1023.38
2023-02-04T10:40:49.355Z,1023.36
2023-02-04T10:41:49.870Z,1023.39
2023-02-04T10:42:49.327Z,1023.36
2023-02-04T10:43:49.304Z,1023.32
2023-02-04T10:44:49.331Z,1023.31
2023-02-04T10:45:49.309Z,1023.34
2023-02-04T10:46:49.246Z,1023.35
2023-02-04T10:47:49.237Z,1023.35
2023-02-04T10:48:49.210Z,1023.37
2023-02-04T10:49:49.224Z,1023.33
2023-02-04T10:50:49.185Z,1023.38
2023-02-04T10:51:49.159Z,1023.41
2023-02-04T10:52:49.136Z,1023.39
2023-02-04T10:53:49.124Z,1023.34
2023-02-04T10:54:49.119Z,1023.39
2023-02-04T10:55:49.128Z,1023.36
2023-02-04T10:56:49.088Z,1023.30
2023-02-04T10:57:49.051Z,1023.22
2023-02-04T10:58:49.030Z,1023.24
2023-02-04T10:59:49.045Z,1023.29
2023-02-04T11:00:49.012Z,1023.30
2023-02-04T11:01:48.987Z,1023.32
2023-02-04T11:02:48.994Z,1023.32
2023-02-04T11:03:51.018Z,1023.32
2023-02-04T11:04:48.922Z,1023.28
2023-02-04T11:05:48.939Z,1023.29
2023-02-04T11:06:48.885Z,1023.33
2023-02-04T11:07:48.870Z,1023.29
2023-02-04T11:08:48.863Z,1023.30
2023-02-04T11:09:48.833Z,1023.31
2023-02-04T11:10:48.848Z,1023.29
2023-02-04T11:11:48.809Z,1023.27
2023-02-04T11:12:48.822Z,1023.28
2023-02-04T11:13:48.773Z,1023.25
2023-02-04T11:14:48.745Z,1023.27
2023-02-04T11:15:50.782Z,1023.27
2023-02-04T11:16:48.723Z,1023.29
2023-02-04T11:17:48.726Z,1023.30
2023-02-04T11:18:48.681Z,1023.31
2023-02-04T11:19:48.669Z,1023.33
2023-02-04T11:20:48.682Z,1023.28
2023-02-04T11:21:48.636Z,1023.27
2023-02-04T11:22:48.602Z,1023.22
2023-02-04T11:23:48.594Z,1023.21
2023-02-04T11:24:48.579Z,1023.24
2023-02-04T11:25:48.561Z,1023.22
2023-02-04T11:26:50.678Z,1023.21
2023-02-04T11:27:48.622Z,1023.23
2023-02-04T11:28:48.511Z,1023.27
2023-02-04T11:29:48.510Z,1023.25
2023-02-04T11:30:48.544Z,1023.22
2023-02-04T11:31:48.622Z,1023.25
2023-02-04T11:32:48.432Z,1023.22
2023-02-04T11:33:48.453Z,1023.24
2023-02-04T11:34:48.396Z,1023.22
2023-02-04T11:35:48.382Z,1023.26
2023-02-04T11:36:48.370Z,1023.25
2023-02-04T11:37:48.371Z,1023.28
2023-02-04T11:38:48.351Z,1023.29
2023-02-04T11:39:48.310Z,1023.33
2023-02-04T11:40:48.290Z,1023.30
2023-02-04T11:41:48.277Z,1023.34
2023-02-04T11:42:48.257Z,1023.37
2023-02-04T11:43:48.263Z,1023.42
2023-02-04T11:44:48.251Z,1023.40
2023-02-04T11:45:48.227Z,1023.37
2023-02-04T11:46:48.189Z,1023.39
2023-02-04T11:47:48.171Z,1023.32
2023-02-04T11:48:48.152Z,1023.35
2023-02-04T11:49:48.141Z,1023.37
2023-02-04T11:50:48.154Z,1023.35
2023-02-04T11:51:48.108Z,1023.36
2023-02-04T11:52:48.081Z,1023.40
2023-02-04T11:53:48.065Z,1023.38
2023-02-04T11:54:48.046Z,1023.36
2023-02-04T11:55:48.054Z,1023.39
2023-02-04T11:56:48.018Z,1023.34
2023-02-04T11:57:48.002Z,1023.39
2023-02-04T11:58:47.975Z,1023.35
2023-02-04T11:59:47.959Z,1023.39
2023-02-04T12:00:47.994Z,1023.37
2023-02-04T12:01:47.932Z,1023.44
2023-02-04T12:02:47.944Z,1023.42
2023-02-04T12:03:47.951Z,1023.40
2023-02-04T12:04:47.874Z,1023.39